Time;durP1;ratioP1;P1;durP2;ratioP2;P2;SDS_P1;SDS_P2;PMS_P1;PMS_P2;Temp;Humidity;BMP_temperature;BMP_pressure;BME280_temperature;BME280_humidity;BME280_pressure;Samples;Min_cycle;Max_cycle;Signal;HPM_P1;HPM_P2
2023/05/25 00:00:26;;;;;;;;;;;;;;;25.56;29.54;101877.78;4145364;28;19965;-61
2023/05/25 00:02:28;;;;;;;;;;;;;;;25.56;29.75;101879.63;4144421;28;20026;-61
2023/05/25 00:04:33;;;;;;;;;;;;;;;25.56;29.75;101867.00;4143935;28;19925;-61
2023/05/25 00:06:40;;;;;;;;;;;;;;;25.58;29.75;101864.16;4145568;28;19925;-61
2023/05/25 00:08:41;;;;;;;;;;;;;;;25.58;29.67;101872.25;4145303;28;19971;-62
2023/05/25 00:10:43;;;;;;;;;;;;;;;25.58;29.42;101865.03;4145393;28;20027;-61
2023/05/25 00:12:44;;;;;;;;;;;;;;;25.59;29.47;101865.88;4143912;28;20314;-61
2023/05/25 00:14:46;;;;;;;;;;;;;;;25.60;29.78;101862.22;4145549;28;20033;-61
2023/05/25 00:16:47;;;;;;;;;;;;;;;25.59;29.88;101866.75;4145161;28;20294;-61
2023/05/25 00:18:49;;;;;;;;;;;;;;;25.59;29.92;101869.44;4145146;28;19964;-62
2023/05/25 00:20:54;;;;;;;;;;;;;;;25.61;29.89;101863.94;4145382;28;19979;-62
2023/05/25 00:22:55;;;;;;;;;;;;;;;25.61;29.54;101863.94;4144282;28;20423;-62
2023/05/25 00:24:57;;;;;;;;;;;;;;;25.60;29.63;101865.78;4145313;28;20424;-61
2023/05/25 00:27:01;;;;;;;;;;;;;;;25.61;29.86;101867.47;4144688;28;19976;-61
2023/05/25 00:29:03;;;;;;;;;;;;;;;25.62;29.89;101871.03;4145304;28;20016;-61
2023/05/25 00:31:04;;;;;;;;;;;;;;;25.61;29.66;101866.63;4145186;28;20366;-61
2023/05/25 00:33:07;;;;;;;;;;;;;;;25.62;29.86;101865.66;4144231;28;19930;-61
2023/05/25 00:35:09;;;;;;;;;;;;;;;25.62;29.79;101868.34;4159987;28;20380;-61
2023/05/25 00:37:10;;;;;;;;;;;;;;;25.62;29.61;101866.50;4161431;28;19925;-61
2023/05/25 00:39:12;;;;;;;;;;;;;;;25.63;29.66;101875.44;4180146;28;20000;-61
2023/05/25 00:41:15;;;;;;;;;;;;;;;25.63;29.82;101870.06;4143900;28;19926;-61
2023/05/25 00:43:17;;;;;;;;;;;;;;;25.64;29.93;101867.22;4144666;28;20013;-61
2023/05/25 00:45:18;;;;;;;;;;;;;;;25.64;29.94;101859.16;4144993;28;20008;-61
2023/05/25 00:47:20;;;;;;;;;;;;;;;25.65;30.02;101857.28;4145050;28;19979;-61
2023/05/25 00:49:22;;;;;;;;;;;;;;;25.65;29.84;101858.16;4145006;28;19965;-61
2023/05/25 00:51:24;;;;;;;;;;;;;;;25.66;30.06;101859.88;4144341;28;20016;-61
2023/05/25 00:53:25;;;;;;;;;;;;;;;25.66;29.99;101864.41;4144575;28;19925;-61
2023/05/25 00:55:28;;;;;;;;;;;;;;;25.66;30.12;101869.78;4144537;28;19932;-61
2023/05/25 00:57:32;;;;;;;;;;;;;;;25.67;30.08;101864.28;4144984;28;19926;-61
2023/05/25 00:59:35;;;;;;;;;;;;;;;25.66;30.06;101864.41;4144920;28;19961;-62
2023/05/25 01:01:39;;;;;;;;;;;;;;;25.66;29.87;101862.59;4144020;28;20235;-62
2023/05/25 01:03:44;;;;;;;;;;;;;;;25.67;29.78;101860.72;4144652;28;19932;-62
2023/05/25 01:05:47;;;;;;;;;;;;;;;25.67;30.23;101860.72;4147069;28;19925;-62
2023/05/25 01:07:50;;;;;;;;;;;;;;;25.68;30.06;101862.44;4147820;28;19933;-61
2023/05/25 01:09:55;;;;;;;;;;;;;;;25.68;29.83;101865.16;4147118;28;19926;-62
2023/05/25 01:11:59;;;;;;;;;;;;;;;25.68;29.95;101860.59;4146977;28;19925;-63
2023/05/25 01:14:00;;;;;;;;;;;;;;;25.68;30.12;101857.91;4147642;28;19926;-61
2023/05/25 01:16:02;;;;;;;;;;;;;;;25.69;29.94;101858.78;4147664;28;20028;-62
2023/05/25 01:18:04;;;;;;;;;;;;;;;25.70;30.01;101860.50;4147434;28;20371;-62
2023/05/25 01:20:06;;;;;;;;;;;;;;;25.70;29.88;101860.50;4147579;28;20399;-61
2023/05/25 01:22:18;;;;;;;;;;;;;;;25.70;30.17;101865.00;4146304;28;19934;-62
2023/05/25 01:24:26;;;;;;;;;;;;;;;25.70;30.13;101860.50;4147190;28;19932;-62
2023/05/25 01:26:30;;;;;;;;;;;;;;;25.70;30.09;101859.63;4178762;28;20420;-64
2023/05/25 01:28:39;;;;;;;;;;;;;;;25.70;29.80;101859.63;4147400;28;19929;-62
2023/05/25 01:30:42;;;;;;;;;;;;;;;25.68;30.04;101857.06;4147393;28;19925;-62
2023/05/25 01:32:44;;;;;;;;;;;;;;;25.68;30.22;101863.28;4146243;28;19925;-62
2023/05/25 01:34:47;;;;;;;;;;;;;;;25.68;30.14;101862.44;4159357;28;19964;-62
2023/05/25 01:36:48;;;;;;;;;;;;;;;25.70;29.94;101867.69;4163428;28;20003;-61
2023/05/25 01:38:50;;;;;;;;;;;;;;;25.69;30.22;101864.16;4153666;28;20426;-62
2023/05/25 01:40:53;;;;;;;;;;;;;;;25.71;29.82;101869.41;4147059;28;19932;-62
2023/05/25 01:42:54;;;;;;;;;;;;;;;25.71;30.11;101872.13;4146297;28;19935;-62
2023/05/25 01:44:57;;;;;;;;;;;;;;;25.71;30.22;101867.56;4146136;28;20401;-61
2023/05/25 01:47:20;;;;;;;;;;;;;;;25.71;30.09;101870.25;4147013;28;20036;-62
2023/05/25 01:49:27;;;;;;;;;;;;;;;25.72;30.24;101868.44;4147332;28;19925;-61
2023/05/25 01:51:31;;;;;;;;;;;;;;;25.71;30.08;101872.97;4146674;28;20423;-61
2023/05/25 01:53:35;;;;;;;;;;;;;;;25.70;30.13;101873.09;4146037;28;20025;-62
2023/05/25 01:55:41;;;;;;;;;;;;;;;25.70;29.88;101875.78;4147155;28;20058;-62
2023/05/25 01:57:48;;;;;;;;;;;;;;;25.70;29.94;101878.47;4146996;28;19930;-62
2023/05/25 01:59:51;;;;;;;;;;;;;;;25.71;30.23;101880.19;4146995;28;19929;-62
2023/05/25 02:01:53;;;;;;;;;;;;;;;25.70;30.11;101873.09;4146087;28;19925;-62
2023/05/25 02:03:55;;;;;;;;;;;;;;;25.71;30.23;101874.81;4146913;28;20283;-62
2023/05/25 02:05:57;;;;;;;;;;;;;;;25.72;30.15;101881.91;4147069;28;19941;-62
2023/05/25 02:07:59;;;;;;;;;;;;;;;25.71;30.16;101878.34;4146355;28;19925;-62
2023/05/25 02:10:01;;;;;;;;;;;;;;;25.72;30.02;101880.06;4147067;28;19961;-61
2023/05/25 02:12:03;;;;;;;;;;;;;;;25.74;30.00;101882.66;4145854;28;19995;-62
2023/05/25 02:14:04;;;;;;;;;;;;;;;25.74;30.04;101882.66;4145480;28;19926;-62
2023/05/25 02:16:06;;;;;;;;;;;;;;;25.73;30.14;101884.47;4146477;28;20033;-65
2023/05/25 02:18:08;;;;;;;;;;;;;;;25.73;29.75;101878.25;4146380;28;20014;-62
2023/05/25 02:20:10;;;;;;;;;;;;;;;25.74;29.97;101885.34;4145767;28;19929;-62
2023/05/25 02:22:12;;;;;;;;;;;;;;;25.74;29.87;101882.66;4145290;28;19932;-62
2023/05/25 02:24:13;;;;;;;;;;;;;;;25.74;30.06;101888.03;4146627;28;19968;-62
2023/05/25 02:26:15;;;;;;;;;;;;;;;25.73;30.20;101884.47;4146352;28;20302;-62
2023/05/25 02:28:17;;;;;;;;;;;;;;;25.72;29.93;101887.31;4146404;28;20383;-62
2023/05/25 02:30:19;;;;;;;;;;;;;;;25.72;30.00;101890.00;4146412;28;19932;-62
2023/05/25 02:32:21;;;;;;;;;;;;;;;25.73;30.11;101889.03;4145576;28;20318;-61
2023/05/25 02:34:23;;;;;;;;;;;;;;;25.73;29.91;101897.94;4154970;28;19925;-61
2023/05/25 02:36:25;;;;;;;;;;;;;;;25.73;30.08;101894.41;4162480;28;19934;-61
2023/05/25 02:38:26;;;;;;;;;;;;;;;25.73;30.10;101897.94;4156301;28;19970;-61
2023/05/25 02:40:28;;;;;;;;;;;;;;;25.74;29.86;101898.81;4146561;28;19932;-61
2023/05/25 02:42:29;;;;;;;;;;;;;;;25.75;29.86;101900.50;4145430;28;20345;-61
2023/05/25 02:44:31;;;;;;;;;;;;;;;25.75;29.90;101903.19;4145141;28;19926;-61
2023/05/25 02:46:33;;;;;;;;;;;;;;;25.73;30.08;101897.94;4146369;28;19955;-61
2023/05/25 02:48:34;;;;;;;;;;;;;;;25.74;30.04;101906.91;4146256;28;19933;-62
2023/05/25 02:50:36;;;;;;;;;;;;;;;25.73;29.67;101910.56;4146450;28;19932;-61
2023/05/25 02:52:37;;;;;;;;;;;;;;;25.72;30.03;101909.69;4144913;28;20401;-62
2023/05/25 02:54:39;;;;;;;;;;;;;;;25.72;29.70;101915.09;4146364;28;19990;-61
2023/05/25 02:56:41;;;;;;;;;;;;;;;25.72;29.88;101912.41;4146366;28;20343;-61
2023/05/25 02:58:43;;;;;;;;;;;;;;;25.73;29.93;101907.88;4146335;28;20298;-61
2023/05/25 03:00:45;;;;;;;;;;;;;;;25.73;29.84;101910.56;4146137;28;20019;-61
2023/05/25 03:02:47;;;;;;;;;;;;;;;25.73;29.73;101907.88;4145288;28;19979;-61
2023/05/25 03:04:52;;;;;;;;;;;;;;;25.72;29.85;101912.41;4146113;28;19925;-62
2023/05/25 03:06:55;;;;;;;;;;;;;;;25.75;29.68;101919.38;4145928;28;20012;-61
2023/05/25 03:08:56;;;;;;;;;;;;;;;25.74;29.85;101913.13;4146169;28;19976;-61
2023/05/25 03:10:58;;;;;;;;;;;;;;;25.74;29.86;101910.44;4145677;28;19979;-61
2023/05/25 03:12:59;;;;;;;;;;;;;;;25.76;30.03;101913.00;4145091;28;20137;-62
2023/05/25 03:15:01;;;;;;;;;;;;;;;25.74;29.78;101915.84;4146112;28;19925;-62
2023/05/25 03:17:03;;;;;;;;;;;;;;;25.73;29.87;101914.13;4146008;28;19939;-61
2023/05/25 03:19:05;;;;;;;;;;;;;;;25.75;29.86;101920.25;4145959;28;19925;-61
2023/05/25 03:21:06;;;;;;;;;;;;;;;25.74;29.72;101915.84;4145712;28;19926;-61
2023/05/25 03:23:08;;;;;;;;;;;;;;;25.74;29.96;101920.38;4143505;28;19929;-61
2023/05/25 03:25:12;;;;;;;;;;;;;;;25.72;29.87;101916.94;4145786;28;19926;-62
2023/05/25 03:27:14;;;;;;;;;;;;;;;25.72;29.85;101922.34;4145464;28;19929;-61
2023/05/25 03:29:15;;;;;;;;;;;;;;;25.72;29.90;101923.16;4144982;28;19964;-62
2023/05/25 03:31:17;;;;;;;;;;;;;;;25.73;29.93;101924.03;4145923;28;19926;-61
2023/05/25 03:33:19;;;;;;;;;;;;;;;25.73;29.51;101930.28;4144836;28;19925;-61
2023/05/25 03:35:21;;;;;;;;;;;;;;;25.72;29.90;101923.16;4161610;28;19929;-61
2023/05/25 03:37:22;;;;;;;;;;;;;;;25.74;29.68;101925.78;4162209;28;19925;-60
2023/05/25 03:39:24;;;;;;;;;;;;;;;25.74;29.98;101936.53;4147744;28;19961;-61
2023/05/25 03:41:25;;;;;;;;;;;;;;;25.74;29.63;101936.53;4145653;28;20375;-61
2023/05/25 03:43:27;;;;;;;;;;;;;;;25.73;29.63;101940.22;4144788;28;20012;-61
2023/05/25 03:45:28;;;;;;;;;;;;;;;25.72;29.82;101933.94;4145757;28;19925;-61
2023/05/25 03:47:30;;;;;;;;;;;;;;;25.73;29.46;101945.59;4146005;28;19929;-61
2023/05/25 03:49:32;;;;;;;;;;;;;;;25.72;29.92;101947.44;4145332;28;19926;-61
2023/05/25 03:51:33;;;;;;;;;;;;;;;25.72;29.81;101943.88;4145359;28;19960;-61
2023/05/25 03:53:35;;;;;;;;;;;;;;;25.72;29.58;101952.81;4144477;28;20434;-61
2023/05/25 03:55:37;;;;;;;;;;;;;;;25.72;29.93;101949.28;4145454;28;20387;-61
2023/05/25 03:57:38;;;;;;;;;;;;;;;25.71;29.71;101947.56;4145420;28;19926;-61
2023/05/25 03:59:40;;;;;;;;;;;;;;;25.71;29.89;101943.00;4145660;28;19933;-62
2023/05/25 04:01:41;;;;;;;;;;;;;;;25.72;29.91;101949.28;4145499;28;19969;-61
2023/05/25 04:03:43;;;;;;;;;;;;;;;25.72;29.52;101951.97;4144176;28;20314;-61
2023/05/25 04:05:45;;;;;;;;;;;;;;;25.72;29.71;101951.97;4145338;28;19925;-60
2023/05/25 04:07:46;;;;;;;;;;;;;;;25.72;29.87;101950.13;4145285;28;19926;-61
2023/05/25 04:09:48;;;;;;;;;;;;;;;25.72;29.76;101950.13;4145435;28;19925;-61
2023/05/25 04:11:49;;;;;;;;;;;;;;;25.72;29.81;101950.13;4145219;28;19960;-61
2023/05/25 04:13:51;;;;;;;;;;;;;;;25.73;29.49;101945.59;4144189;28;20010;-61
2023/05/25 04:15:53;;;;;;;;;;;;;;;25.70;29.81;101938.63;4145286;28;19948;-61
2023/05/25 04:17:55;;;;;;;;;;;;;;;25.70;29.70;101944.03;4145153;28;19926;-61
2023/05/25 04:19:56;;;;;;;;;;;;;;;25.69;29.71;101942.31;4145513;28;19931;-61
2023/05/25 04:21:58;;;;;;;;;;;;;;;25.69;29.54;101939.59;4145044;28;19978;-61
2023/05/25 04:24:00;;;;;;;;;;;;;;;25.70;29.71;101940.44;4144670;28;19925;-61
2023/05/25 04:26:02;;;;;;;;;;;;;;;25.69;29.70;101942.31;4144849;28;19969;-62
2023/05/25 04:28:04;;;;;;;;;;;;;;;25.69;29.75;101942.31;4144888;28;19925;-61
2023/05/25 04:30:05;;;;;;;;;;;;;;;25.70;29.74;101944.03;4145263;28;19968;-61
2023/05/25 04:32:08;;;;;;;;;;;;;;;25.69;29.63;101939.59;4144298;28;20337;-61
2023/05/25 04:34:10;;;;;;;;;;;;;;;25.70;29.81;101945.84;4151177;28;19925;-62
2023/05/25 04:36:13;;;;;;;;;;;;;;;25.70;29.44;101941.31;4161504;28;20012;-62
2023/05/25 04:38:16;;;;;;;;;;;;;;;25.70;29.51;101949.41;4156518;28;19933;-61
2023/05/25 04:40:20;;;;;;;;;;;;;;;25.71;29.32;101958.34;4144654;28;19925;-62
2023/05/25 04:42:22;;;;;;;;;;;;;;;25.69;29.60;101955.78;4144027;28;20020;-61
2023/05/25 04:44:24;;;;;;;;;;;;;;;25.68;29.46;101962.97;4144946;28;19932;-61
2023/05/25 04:46:26;;;;;;;;;;;;;;;25.68;29.40;101959.44;4144846;28;19929;-61
2023/05/25 04:48:27;;;;;;;;;;;;;;;25.68;29.59;101964.84;4144582;28;20008;-61
2023/05/25 04:50:29;;;;;;;;;;;;;;;25.68;29.64;101967.53;4144808;28;19925;-62
2023/05/25 04:52:31;;;;;;;;;;;;;;;25.67;29.72;101968.50;4144015;28;20028;-61
2023/05/25 04:54:33;;;;;;;;;;;;;;;25.68;29.78;101975.59;4144970;28;20058;-61
2023/05/25 04:56:35;;;;;;;;;;;;;;;25.69;29.63;101974.63;4145032;28;19978;-61
2023/05/25 04:58:36;;;;;;;;;;;;;;;25.68;29.76;101973.75;4144915;28;19926;-61
2023/05/25 05:00:39;;;;;;;;;;;;;;;25.68;29.68;101971.06;4144870;28;19925;-61
2023/05/25 05:02:41;;;;;;;;;;;;;;;25.68;29.69;101973.75;4143659;28;19936;-61
2023/05/25 05:04:42;;;;;;;;;;;;;;;25.68;29.76;101968.38;4144463;28;19925;-60
2023/05/25 05:06:45;;;;;;;;;;;;;;;25.68;29.66;101967.53;4144772;28;20395;-60
2023/05/25 05:08:46;;;;;;;;;;;;;;;25.66;29.63;101964.97;4144805;28;19949;-62
2023/05/25 05:10:48;;;;;;;;;;;;;;;25.67;29.66;101976.59;4144586;28;19926;-60
2023/05/25 05:12:49;;;;;;;;;;;;;;;25.65;29.73;101965.06;4175314;28;19931;-62
2023/05/25 05:14:51;;;;;;;;;;;;;;;25.65;29.24;101978.53;4144548;28;19933;-61
2023/05/25 05:16:53;;;;;;;;;;;;;;;25.65;29.49;101970.44;4144293;28;19926;-62
2023/05/25 05:18:55;;;;;;;;;;;;;;;25.64;29.81;101976.84;4144623;28;20674;-61
2023/05/25 05:20:56;;;;;;;;;;;;;;;25.62;29.36;101984.19;4144397;28;19974;-62
2023/05/25 05:22:58;;;;;;;;;;;;;;;25.62;29.58;101989.56;4143622;28;19925;-61
2023/05/25 05:25:00;;;;;;;;;;;;;;;25.63;29.66;101999.38;4143191;28;19926;-62
2023/05/25 05:27:02;;;;;;;;;;;;;;;25.63;29.30;101994.84;4144303;28;19932;-62
2023/05/25 05:29:05;;;;;;;;;;;;;;;25.64;29.58;101999.25;4144448;28;19932;-59
2023/05/25 05:31:07;;;;;;;;;;;;;;;25.64;29.34;102003.78;4144251;28;19932;-61
2023/05/25 05:33:08;;;;;;;;;;;;;;;25.63;29.49;102011.00;4143607;28;19926;-61
2023/05/25 05:35:10;;;;;;;;;;;;;;;25.63;29.53;102004.75;4159868;28;20358;-61
2023/05/25 05:37:11;;;;;;;;;;;;;;;25.62;29.55;102005.75;4160750;28;20410;-61
2023/05/25 05:39:13;;;;;;;;;;;;;;;25.62;29.36;102008.44;4148023;28;19929;-61
2023/05/25 05:41:14;;;;;;;;;;;;;;;25.61;29.43;102018.34;4144347;28;20018;-61
2023/05/25 05:43:16;;;;;;;;;;;;;;;25.59;29.44;102008.66;4143610;28;19925;-62
2023/05/25 05:45:17;;;;;;;;;;;;;;;25.59;29.63;102012.22;4144241;28;19999;-61
2023/05/25 05:47:19;;;;;;;;;;;;;;;25.58;29.23;102010.50;4144364;28;19932;-61
2023/05/25 05:49:20;;;;;;;;;;;;;;;25.57;29.43;102011.50;4144304;28;19934;-61
2023/05/25 05:51:22;;;;;;;;;;;;;;;25.58;29.50;102005.13;4144341;28;20311;-61
2023/05/25 05:53:24;;;;;;;;;;;;;;;25.58;29.42;102015.03;4146221;28;20576;-61
2023/05/25 05:55:25;;;;;;;;;;;;;;;25.57;29.48;102014.19;4146968;28;19964;-61
2023/05/25 05:57:27;;;;;;;;;;;;;;;25.59;29.53;102017.63;4146799;28;19933;-61
2023/05/25 05:59:28;;;;;;;;;;;;;;;25.59;29.57;102016.75;4146610;28;19957;-62
2023/05/25 06:01:30;;;;;;;;;;;;;;;25.60;29.44;102021.16;4147031;28;19932;-62
2023/05/25 06:03:32;;;;;;;;;;;;;;;25.58;29.21;102018.59;4145982;28;19978;-62
2023/05/25 06:05:33;;;;;;;;;;;;;;;25.58;29.49;102010.50;4146844;28;19975;-62
2023/05/25 06:07:36;;;;;;;;;;;;;;;25.59;29.43;102011.34;4145640;28;19930;-62
2023/05/25 06:09:38;;;;;;;;;;;;;;;25.57;29.38;102021.41;4146901;28;19925;-62
2023/05/25 06:11:40;;;;;;;;;;;;;;;25.56;29.48;102017.84;4146792;28;19926;-62
2023/05/25 06:13:41;;;;;;;;;;;;;;;25.56;29.09;102020.53;4145727;28;20310;-62
2023/05/25 06:15:45;;;;;;;;;;;;;;;25.56;29.61;102022.38;4146461;28;19926;-62
2023/05/25 06:17:47;;;;;;;;;;;;;;;25.56;29.51;102025.09;4146710;28;20016;-61
2023/05/25 06:19:48;;;;;;;;;;;;;;;25.56;29.24;102034.00;4146835;28;19944;-61
2023/05/25 06:21:50;;;;;;;;;;;;;;;25.56;29.54;102031.31;4146751;28;19930;-62
2023/05/25 06:23:52;;;;;;;;;;;;;;;25.57;29.52;102026.81;4145584;28;19929;-61
2023/05/25 06:25:54;;;;;;;;;;;;;;;25.56;29.38;102034.00;4146421;28;20024;-61
2023/05/25 06:27:56;;;;;;;;;;;;;;;25.56;29.07;102041.25;4146440;28;19933;-61
2023/05/25 06:29:57;;;;;;;;;;;;;;;25.55;29.25;102034.13;4146252;28;19948;-61
2023/05/25 06:31:59;;;;;;;;;;;;;;;25.54;29.35;102040.50;4146588;28;20462;-61
2023/05/25 06:34:00;;;;;;;;;;;;;;;25.54;29.09;102040.50;4151245;28;20378;-61
2023/05/25 06:36:02;;;;;;;;;;;;;;;25.54;29.22;102035.97;4147275;28;20305;-61
2023/05/25 06:38:05;;;;;;;;;;;;;;;25.54;29.09;102038.66;4155664;28;19924;-67
2023/05/25 06:40:10;;;;;;;;;;;;;;;25.54;29.26;102037.81;4139453;28;19926;-69
2023/05/25 06:42:12;;;;;;;;;;;;;;;25.52;29.37;102040.63;4128852;28;19983;-69
2023/05/25 06:44:13;;;;;;;;;;;;;;;25.52;28.91;102044.16;4135537;28;19929;-67
2023/05/25 06:46:16;;;;;;;;;;;;;;;25.52;29.30;102040.63;4145380;28;19929;-66
2023/05/25 06:48:19;;;;;;;;;;;;;;;25.52;28.98;102052.25;4146201;28;19972;-68
2023/05/25 06:50:21;;;;;;;;;;;;;;;25.51;29.03;102053.22;4146210;28;20144;-68
2023/05/25 06:52:22;;;;;;;;;;;;;;;25.52;28.99;102046.03;4145929;28;19930;-68
2023/05/25 06:54:24;;;;;;;;;;;;;;;25.52;28.90;102048.72;4144232;28;19974;-67
2023/05/25 06:56:26;;;;;;;;;;;;;;;25.52;28.81;102052.25;4138362;28;20307;-69
2023/05/25 06:58:28;;;;;;;;;;;;;;;25.52;28.81;102046.03;4129760;28;20287;-69
2023/05/25 07:00:29;;;;;;;;;;;;;;;25.52;28.96;102052.25;4129965;28;20307;-68
2023/05/25 07:02:31;;;;;;;;;;;;;;;25.51;28.75;102049.69;4129704;28;19930;-68
2023/05/25 07:04:33;;;;;;;;;;;;;;;25.51;28.81;102053.22;4129210;28;19946;-67
2023/05/25 07:06:35;;;;;;;;;;;;;;;25.51;28.91;102047.84;4133181;28;19925;-67
2023/05/25 07:08:37;;;;;;;;;;;;;;;25.51;28.92;102042.44;4144328;28;20432;-66
2023/05/25 07:10:38;;;;;;;;;;;;;;;25.51;28.94;102034.38;4145642;28;19926;-67
2023/05/25 07:12:40;;;;;;;;;;;;;;;25.52;28.74;102052.25;4143371;28;19936;-67
2023/05/25 07:14:41;;;;;;;;;;;;;;;25.52;28.75;102036.09;4145921;28;19933;-67
2023/05/25 07:16:46;;;;;;;;;;;;;;;25.54;28.74;102046.72;4144806;28;19929;-65
2023/05/25 07:18:47;;;;;;;;;;;;;;;25.54;28.87;102046.72;4145982;28;19926;-66
2023/05/25 07:20:50;;;;;;;;;;;;;;;25.54;28.76;102043.19;4145929;28;20016;-67
2023/05/25 07:22:54;;;;;;;;;;;;;;;25.52;28.66;102051.41;4145302;28;19930;-66
2023/05/25 07:24:56;;;;;;;;;;;;;;;25.52;28.38;102051.41;4145687;28;19926;-65
2023/05/25 07:26:57;;;;;;;;;;;;;;;25.51;28.35;102055.06;4145306;28;19925;-65
2023/05/25 07:28:59;;;;;;;;;;;;;;;25.49;28.32;102051.63;4137860;28;20352;-66
2023/05/25 07:31:01;;;;;;;;;;;;;;;25.51;28.62;102052.38;4129743;28;20029;-65
2023/05/25 07:33:02;;;;;;;;;;;;;;;25.50;28.50;102050.66;4128885;28;19929;-67
2023/05/25 07:35:04;;;;;;;;;;;;;;;25.49;28.56;102051.63;4158233;28;19925;-67
2023/05/25 07:37:06;;;;;;;;;;;;;;;25.49;28.44;102046.25;4162020;28;19925;-65
2023/05/25 07:39:10;;;;;;;;;;;;;;;25.36;28.36;102028.31;4150018;28;20294;-68
2023/05/25 07:41:12;;;;;;;;;;;;;;;25.44;28.54;102043.06;4145277;28;20017;-67
2023/05/25 07:43:14;;;;;;;;;;;;;;;25.45;28.43;102048.31;4145024;28;19937;-68
2023/05/25 07:45:15;;;;;;;;;;;;;;;25.45;28.28;102048.31;4138256;28;19957;-68
2023/05/25 07:47:17;;;;;;;;;;;;;;;25.45;28.54;102045.63;4129344;28;20012;-68
2023/05/25 07:49:18;;;;;;;;;;;;;;;25.46;28.52;102038.41;4129623;28;20379;-69
2023/05/25 07:51:22;;;;;;;;;;;;;;;25.46;28.25;102030.34;4129536;28;19926;-69
2023/05/25 07:53:23;;;;;;;;;;;;;;;25.43;28.11;102044.91;4128282;28;20005;-68
2023/05/25 07:55:25;;;;;;;;;;;;;;;25.43;28.04;102041.34;4129039;28;19986;-67
2023/05/25 07:57:28;;;;;;;;;;;;;;;25.39;28.11;102051.50;4129514;28;20057;-68
2023/05/25 07:59:30;;;;;;;;;;;;;;;25.35;28.12;102039.22;4129516;28;20272;-67
2023/05/25 08:01:31;;;;;;;;;;;;;;;25.34;28.07;102041.03;4128425;28;19926;-69
2023/05/25 08:03:33;;;;;;;;;;;;;;;25.31;27.99;102053.88;4128360;28;20476;-68
2023/05/25 08:05:50;;;;;;;;;;;;;;;25.30;27.76;102052.16;4129123;28;19984;-68
2023/05/25 08:07:52;;;;;;;;;;;;;;;25.28;27.83;102046.91;4128110;28;19987;-68
2023/05/25 08:09:53;;;;;;;;;;;;;;;25.27;27.87;102042.50;4128864;28;20006;-68
2023/05/25 08:11:55;;;;;;;;;;;;;;;25.26;27.94;102054.22;4129126;28;19961;-67
2023/05/25 08:14:17;;;;;;;;;;;;;;;25.24;27.74;102045.44;4127991;28;19926;-66
2023/05/25 08:16:19;;;;;;;;;;;;;;;25.24;27.66;102050.81;4129391;28;20323;-67
2023/05/25 08:18:21;;;;;;;;;;;;;;;25.26;27.80;102045.31;4128301;28;19983;-66
2023/05/25 08:20:24;;;;;;;;;;;;;;;25.24;27.45;102047.25;4129064;28;19926;-68
2023/05/25 08:22:26;;;;;;;;;;;;;;;25.23;27.75;102069.78;4130757;28;19926;-63
2023/05/25 08:24:27;;;;;;;;;;;;;;;25.17;27.35;102060.34;4139127;28;19983;-63
2023/05/25 08:26:35;;;;;;;;;;;;;;;25.11;27.39;102067.03;4144898;28;19937;-61
2023/05/25 08:28:55;;;;;;;;;;;;;;;25.07;27.08;102057.50;4129770;28;19933;-63
2023/05/25 08:30:57;;;;;;;;;;;;;;;25.02;26.68;102044.38;4127592;28;20379;-63
2023/05/25 08:32:59;;;;;;;;;;;;;;;25.01;27.06;102048.06;4127960;28;19972;-64
2023/05/25 08:35:03;;;;;;;;;;;;;;;24.99;26.70;102062.59;4148013;28;19932;-67
2023/05/25 08:37:04;;;;;;;;;;;;;;;24.93;26.67;102039.69;4129096;28;19926;-66
2023/05/25 08:39:07;;;;;;;;;;;;;;;24.88;26.87;102031.13;4201502;28;19969;-66
2023/05/25 08:41:10;;;;;;;;;;;;;;;24.86;26.63;102028.56;4148945;28;19990;-67
2023/05/25 08:43:12;;;;;;;;;;;;;;;24.87;26.55;102030.28;4175867;28;20360;-64
2023/05/25 08:45:13;;;;;;;;;;;;;;;24.85;26.80;102032.22;4144739;28;19998;-66
2023/05/25 08:47:38;;;;;;;;;;;;;;;24.81;26.92;102041.50;4144961;28;20266;-64
2023/05/25 08:49:40;;;;;;;;;;;;;;;24.81;26.70;102054.09;4144756;28;19965;-64
2023/05/25 08:51:42;;;;;;;;;;;;;;;24.71;26.44;102046.69;4143965;28;19925;-63
2023/05/25 08:53:44;;;;;;;;;;;;;;;24.65;26.61;102055.19;4143576;28;19932;-65
2023/05/25 08:55:46;;;;;;;;;;;;;;;24.62;26.71;102052.75;4144970;28;19969;-69
2023/05/25 08:57:56;;;;;;;;;;;;;;;24.58;26.36;102051.25;4144716;28;19967;-65
2023/05/25 09:00:11;;;;;;;;;;;;;;;24.51;26.83;102041.91;4144886;28;19932;-66
2023/05/25 09:02:19;;;;;;;;;;;;;;;24.50;26.83;102050.97;4144798;28;19929;-64
2023/05/25 09:04:22;;;;;;;;;;;;;;;24.49;26.85;102044.72;4143681;28;19925;-63
2023/05/25 09:06:25;;;;;;;;;;;;;;;24.50;26.85;102048.28;4144766;28;20304;-66
2023/05/25 09:08:27;;;;;;;;;;;;;;;24.46;26.91;102047.66;4144449;28;19968;-64
2023/05/25 09:10:29;;;;;;;;;;;;;;;24.45;26.80;102045.94;4128847;28;20376;-66
2023/05/25 09:12:31;;;;;;;;;;;;;;;24.36;27.02;102042.09;4128457;28;20344;-70
2023/05/25 09:14:33;;;;;;;;;;;;;;;24.32;27.03;102037.03;4127384;28;19972;-69
2023/05/25 09:16:40;;;;;;;;;;;;;;;24.31;27.00;102044.22;4133743;28;19932;-68
2023/05/25 09:18:42;;;;;;;;;;;;;;;24.29;27.29;102040.81;4128362;28;19940;-65
2023/05/25 09:20:43;;;;;;;;;;;;;;;24.27;26.90;102041.91;4128342;28;19951;-65
2023/05/25 09:22:48;;;;;;;;;;;;;;;24.28;27.09;102028.34;4127918;28;19944;-66
2023/05/25 09:24:49;;;;;;;;;;;;;;;24.30;27.15;102031.75;4158664;28;19957;-66
2023/05/25 09:26:51;;;;;;;;;;;;;;;24.29;27.23;102038.13;4129349;28;19932;-66
2023/05/25 09:28:52;;;;;;;;;;;;;;;24.23;27.11;102033.22;4130860;28;19986;-66
2023/05/25 09:30:55;;;;;;;;;;;;;;;24.18;27.02;102032.66;4130881;28;20036;-71
2023/05/25 09:33:07;;;;;;;;;;;;;;;24.20;27.06;102028.03;4131180;28;19940;-68
2023/05/25 09:35:10;;;;;;;;;;;;;;;24.22;27.19;102039.56;4161043;28;19936;-66
2023/05/25 09:37:13;;;;;;;;;;;;;;;24.18;26.94;102038.03;4163384;28;19933;-63
2023/05/25 09:39:15;;;;;;;;;;;;;;;23.92;27.13;101992.38;4150288;28;19926;-63
2023/05/25 09:41:17;;;;;;;;;;;;;;;24.11;26.77;102047.50;4147283;28;19925;-63
2023/05/25 09:43:20;;;;;;;;;;;;;;;24.08;26.62;102032.47;4139708;28;19929;-64
2023/05/25 09:45:40;;;;;;;;;;;;;;;24.01;26.41;102037.44;4130888;28;20378;-61
2023/05/25 09:47:42;;;;;;;;;;;;;;;24.00;26.51;102030.34;4130887;28;19971;-62
2023/05/25 09:49:46;;;;;;;;;;;;;;;23.96;26.46;102026.16;4130819;28;19976;-60
2023/05/25 09:51:48;;;;;;;;;;;;;;;23.98;26.24;102036.81;4130467;28;19926;-62
2023/05/25 09:53:49;;;;;;;;;;;;;;;24.03;26.25;102035.47;4129765;28;19926;-62
2023/05/25 09:55:51;;;;;;;;;;;;;;;24.06;26.20;102026.38;4130919;28;19937;-61
2023/05/25 09:57:56;;;;;;;;;;;;;;;24.07;26.27;102025.38;4130962;28;19926;-60
2023/05/25 09:59:57;;;;;;;;;;;;;;;24.09;25.94;102029.66;4131182;28;20392;-61
2023/05/25 10:01:59;;;;;;;;;;;;;;;24.12;26.18;102033.09;4130655;28;19926;-62
2023/05/25 10:04:01;;;;;;;;;;;;;;;24.14;26.56;102025.81;4129739;28;19978;-61
2023/05/25 10:06:11;;;;;;;;;;;;;;;24.18;26.41;102035.34;4130234;28;19930;-62
2023/05/25 10:08:12;;;;;;;;;;;;;;;24.21;26.59;102027.06;4130799;28;19930;-62
2023/05/25 10:10:14;;;;;;;;;;;;;;;24.23;26.44;102042.13;4130518;28;20318;-63
2023/05/25 10:12:17;;;;;;;;;;;;;;;24.26;26.55;102024.91;4161591;28;20343;-63
2023/05/25 10:14:23;;;;;;;;;;;;;;;24.28;26.85;102033.72;4129248;28;19926;-61
2023/05/25 10:16:30;;;;;;;;;;;;;;;24.31;26.77;102038.84;4130197;28;19932;-61
2023/05/25 10:18:34;;;;;;;;;;;;;;;24.33;26.86;102038.78;4145857;28;19925;-60
2023/05/25 10:20:36;;;;;;;;;;;;;;;24.34;26.71;102021.63;4146401;28;20314;-60
2023/05/25 10:22:41;;;;;;;;;;;;;;;24.37;26.66;102033.03;4146722;28;19947;-61
2023/05/25 10:24:55;;;;;;;;;;;;;;;24.37;26.84;102038.41;4145679;28;19933;-61
2023/05/25 10:26:58;;;;;;;;;;;;;;;24.40;26.76;102030.13;4146101;28;20028;-61
2023/05/25 10:29:09;;;;;;;;;;;;;;;24.44;26.99;102036.13;4175969;28;19925;-62